sensor_id;sensor_type;location;lat;lon;timestamp;pressure;altitude;pressure_sealevel;temperature
73685;BMP280;61985;51.070;14.064;2023-05-20T05:14:15;99380.13;;;11.43
73685;BMP280;61985;51.070;14.064;2023-05-20T05:16:41;99398.84;;;11.54
73685;BMP280;61985;51.070;14.064;2023-05-20T05:19:10;99389.44;;;11.62
73685;BMP280;61985;51.070;14.064;2023-05-20T05:21:37;99379.88;;;11.58
73685;BMP280;61985;51.070;14.064;2023-05-20T05:24:02;99392.38;;;11.72
73685;BMP280;61985;51.070;14.064;2023-05-20T05:26:28;99390.41;;;11.72
73685;BMP280;61985;51.070;14.064;2023-05-20T05:28:53;99388.34;;;11.80
73685;BMP280;61985;51.070;14.064;2023-05-20T05:31:19;99384.84;;;11.83
73685;BMP280;61985;51.070;14.064;2023-05-20T05:33:44;99382.22;;;11.99
73685;BMP280;61985;51.070;14.064;2023-05-20T05:36:10;99382.63;;;11.98
73685;BMP280;61985;51.070;14.064;2023-05-20T05:38:35;99386.16;;;11.95
73685;BMP280;61985;51.070;14.064;2023-05-20T05:41:00;99385.44;;;11.91
73685;BMP280;61985;51.070;14.064;2023-05-20T05:43:26;99381.59;;;12.12
73685;BMP280;61985;51.070;14.064;2023-05-20T05:45:51;99382.53;;;12.01
73685;BMP280;61985;51.070;14.064;2023-05-20T05:48:16;99379.16;;;12.17
73685;BMP280;61985;51.070;14.064;2023-05-20T05:50:45;99384.56;;;12.17
73685;BMP280;61985;51.070;14.064;2023-05-20T05:53:11;99386.00;;;12.22
73685;BMP280;61985;51.070;14.064;2023-05-20T05:55:36;99375.25;;;12.38
73685;BMP280;61985;51.070;14.064;2023-05-20T05:58:02;99371.13;;;12.34
73685;BMP280;61985;51.070;14.064;2023-05-20T06:00:27;99370.81;;;12.28
73685;BMP280;61985;51.070;14.064;2023-05-20T06:02:53;99368.00;;;12.15
73685;BMP280;61985;51.070;14.064;2023-05-20T06:05:18;99367.78;;;12.26
73685;BMP280;61985;51.070;14.064;2023-05-20T06:07:51;99362.69;;;12.48
73685;BMP280;61985;51.070;14.064;2023-05-20T06:10:20;99357.03;;;12.42
73685;BMP280;61985;51.070;14.064;2023-05-20T06:12:45;99359.72;;;12.42
73685;BMP280;61985;51.070;14.064;2023-05-20T06:15:11;99365.53;;;12.61
73685;BMP280;61985;51.070;14.064;2023-05-20T06:17:36;99368.13;;;12.64
73685;BMP280;61985;51.070;14.064;2023-05-20T06:20:02;99366.13;;;12.69
73685;BMP280;61985;51.070;14.064;2023-05-20T06:22:27;99363.81;;;12.83
73685;BMP280;61985;51.070;14.064;2023-05-20T06:24:54;99362.34;;;12.82
73685;BMP280;61985;51.070;14.064;2023-05-20T06:27:21;99363.94;;;12.96
73685;BMP280;61985;51.070;14.064;2023-05-20T06:29:46;99367.56;;;13.06
73685;BMP280;61985;51.070;14.064;2023-05-20T06:32:11;99373.63;;;13.26
73685;BMP280;61985;51.070;14.064;2023-05-20T06:34:37;99377.38;;;13.45
73685;BMP280;61985;51.070;14.064;2023-05-20T06:37:05;99383.44;;;13.66
73685;BMP280;61985;51.070;14.064;2023-05-20T06:39:30;99384.50;;;13.56
73685;BMP280;61985;51.070;14.064;2023-05-20T06:41:56;99377.19;;;13.69
73685;BMP280;61985;51.070;14.064;2023-05-20T06:44:21;99381.53;;;13.79
73685;BMP280;61985;51.070;14.064;2023-05-20T06:46:46;99374.22;;;13.93
73685;BMP280;61985;51.070;14.064;2023-05-20T06:49:12;99378.47;;;14.06
73685;BMP280;61985;51.070;14.064;2023-05-20T06:51:37;99374.59;;;14.20
73685;BMP280;61985;51.070;14.064;2023-05-20T06:54:03;99367.22;;;14.34
73685;BMP280;61985;51.070;14.064;2023-05-20T06:56:28;99366.25;;;14.27
73685;BMP280;61985;51.070;14.064;2023-05-20T06:58:54;99363.00;;;14.20
73685;BMP280;61985;51.070;14.064;2023-05-20T07:01:19;99360.84;;;14.40
73685;BMP280;61985;51.070;14.064;2023-05-20T07:03:45;99350.72;;;14.54
73685;BMP280;61985;51.070;14.064;2023-05-20T07:06:10;99362.66;;;14.69
73685;BMP280;61985;51.070;14.064;2023-05-20T07:08:36;99358.56;;;14.39
73685;BMP280;61985;51.070;14.064;2023-05-20T07:11:01;99347.03;;;14.35
73685;BMP280;61985;51.070;14.064;2023-05-20T07:13:26;99337.09;;;14.44
73685;BMP280;61985;51.070;14.064;2023-05-20T07:15:52;99332.16;;;14.52
73685;BMP280;61985;51.070;14.064;2023-05-20T07:18:17;99334.13;;;14.52
73685;BMP280;61985;51.070;14.064;2023-05-20T07:20:43;99323.72;;;14.63
73685;BMP280;61985;51.070;14.064;2023-05-20T07:23:12;99334.31;;;14.70
73685;BMP280;61985;51.070;14.064;2023-05-20T07:25:38;99334.13;;;14.77
73685;BMP280;61985;51.070;14.064;2023-05-20T07:28:03;99332.91;;;14.91
73685;BMP280;61985;51.070;14.064;2023-05-20T07:30:31;99340.56;;;15.05
73685;BMP280;61985;51.070;14.064;2023-05-20T07:32:56;99338.28;;;15.04
73685;BMP280;61985;51.070;14.064;2023-05-20T07:35:22;99339.28;;;14.97
73685;BMP280;61985;51.070;14.064;2023-05-20T07:37:48;99332.19;;;15.00
73685;BMP280;61985;51.070;14.064;2023-05-20T07:40:13;99337.50;;;15.16
73685;BMP280;61985;51.070;14.064;2023-05-20T07:42:39;99334.84;;;14.91
73685;BMP280;61985;51.070;14.064;2023-05-20T07:45:05;99325.38;;;14.95
73685;BMP280;61985;51.070;14.064;2023-05-20T07:47:31;99332.28;;;15.09
73685;BMP280;61985;51.070;14.064;2023-05-20T07:49:57;99325.53;;;14.79
73685;BMP280;61985;51.070;14.064;2023-05-20T07:52:22;99326.72;;;14.78
73685;BMP280;61985;51.070;14.064;2023-05-20T07:54:47;99331.53;;;14.61
73685;BMP280;61985;51.070;14.064;2023-05-20T07:57:13;99331.81;;;14.88
73685;BMP280;61985;51.070;14.064;2023-05-20T07:59:38;99325.41;;;14.82
73685;BMP280;61985;51.070;14.064;2023-05-20T08:02:04;99322.91;;;14.88
73685;BMP280;61985;51.070;14.064;2023-05-20T08:04:29;99328.19;;;15.04
73685;BMP280;61985;51.070;14.064;2023-05-20T08:06:54;99334.56;;;15.11
73685;BMP280;61985;51.070;14.064;2023-05-20T08:09:20;99318.94;;;15.37
73685;BMP280;61985;51.070;14.064;2023-05-20T08:11:49;99322.72;;;15.17
73685;BMP280;61985;51.070;14.064;2023-05-20T08:14:14;99323.34;;;15.21
73685;BMP280;61985;51.070;14.064;2023-05-20T08:16:43;99331.84;;;15.45
73685;BMP280;61985;51.070;14.064;2023-05-20T08:19:11;99326.69;;;15.03
73685;BMP280;61985;51.070;14.064;2023-05-20T08:24:13;99317.97;;;15.08
73685;BMP280;61985;51.070;14.064;2023-05-20T08:26:43;99316.66;;;15.13
73685;BMP280;61985;51.070;14.064;2023-05-20T08:29:08;99315.63;;;15.20
73685;BMP280;61985;51.070;14.064;2023-05-20T08:31:34;99316.66;;;15.35
73685;BMP280;61985;51.070;14.064;2023-05-20T08:34:01;99316.59;;;15.48
73685;BMP280;61985;51.070;14.064;2023-05-20T08:36:27;99318.97;;;15.46
73685;BMP280;61985;51.070;14.064;2023-05-20T08:38:52;99322.22;;;15.32
73685;BMP280;61985;51.070;14.064;2023-05-20T08:41:18;99325.25;;;15.34
73685;BMP280;61985;51.070;14.064;2023-05-20T08:43:43;99316.34;;;15.55
73685;BMP280;61985;51.070;14.064;2023-05-20T08:46:09;99306.44;;;15.61
73685;BMP280;61985;51.070;14.064;2023-05-20T08:48:36;99312.41;;;15.78
73685;BMP280;61985;51.070;14.064;2023-05-20T08:51:02;99303.97;;;15.54
73685;BMP280;61985;51.070;14.064;2023-05-20T08:53:28;99299.69;;;15.44
73685;BMP280;61985;51.070;14.064;2023-05-20T08:55:55;99298.50;;;15.76
73685;BMP280;61985;51.070;14.064;2023-05-20T08:58:22;99288.47;;;15.95
73685;BMP280;61985;51.070;14.064;2023-05-20T09:00:49;99289.63;;;15.85
73685;BMP280;61985;51.070;14.064;2023-05-20T09:03:15;99293.25;;;15.91
73685;BMP280;61985;51.070;14.064;2023-05-20T09:05:41;99293.00;;;15.98
73685;BMP280;61985;51.070;14.064;2023-05-20T09:08:10;99301.72;;;15.84
73685;BMP280;61985;51.070;14.064;2023-05-20T09:10:40;99312.34;;;16.00
73685;BMP280;61985;51.070;14.064;2023-05-20T09:13:07;99308.94;;;15.78
73685;BMP280;61985;51.070;14.064;2023-05-20T09:15:33;99308.78;;;15.81
73685;BMP280;61985;51.070;14.064;2023-05-20T09:18:00;99313.47;;;15.81
73685;BMP280;61985;51.070;14.064;2023-05-20T09:20:29;99313.56;;;15.46
73685;BMP280;61985;51.070;14.064;2023-05-20T09:22:58;99314.38;;;15.78
73685;BMP280;61985;51.070;14.064;2023-05-20T09:25:24;99304.50;;;16.02
73685;BMP280;61985;51.070;14.064;2023-05-20T09:27:49;99321.91;;;16.14
73685;BMP280;61985;51.070;14.064;2023-05-20T09:30:18;99317.63;;;15.95
73685;BMP280;61985;51.070;14.064;2023-05-20T09:32:44;99297.63;;;16.20
73685;BMP280;61985;51.070;14.064;2023-05-20T09:35:12;99306.53;;;16.20
73685;BMP280;61985;51.070;14.064;2023-05-20T09:37:41;99298.75;;;16.00
73685;BMP280;61985;51.070;14.064;2023-05-20T09:40:07;99300.91;;;16.05
73685;BMP280;61985;51.070;14.064;2023-05-20T09:42:39;99303.34;;;16.13
73685;BMP280;61985;51.070;14.064;2023-05-20T09:45:06;99298.69;;;16.22
73685;BMP280;61985;51.070;14.064;2023-05-20T09:47:34;99289.91;;;16.18
73685;BMP280;61985;51.070;14.064;2023-05-20T09:50:00;99286.47;;;16.18
73685;BMP280;61985;51.070;14.064;2023-05-20T09:52:28;99291.44;;;16.19
73685;BMP280;61985;51.070;14.064;2023-05-20T09:54:54;99288.41;;;16.17
73685;BMP280;61985;51.070;14.064;2023-05-20T09:57:20;99281.16;;;16.23
73685;BMP280;61985;51.070;14.064;2023-05-20T09:59:46;99282.91;;;16.48
73685;BMP280;61985;51.070;14.064;2023-05-20T10:02:13;99269.78;;;16.65
73685;BMP280;61985;51.070;14.064;2023-05-20T10:04:43;99278.03;;;16.52
73685;BMP280;61985;51.070;14.064;2023-05-20T10:07:32;99280.19;;;16.67
73685;BMP280;61985;51.070;14.064;2023-05-20T10:10:17;99277.78;;;16.60
73685;BMP280;61985;51.070;14.064;2023-05-20T10:18:39;99265.53;;;16.73
73685;BMP280;61985;51.070;14.064;2023-05-20T10:21:17;99260.84;;;16.92
73685;BMP280;61985;51.070;14.064;2023-05-20T10:23:43;99261.09;;;17.22
73685;BMP280;61985;51.070;14.064;2023-05-20T10:26:09;99254.44;;;17.23
73685;BMP280;61985;51.070;14.064;2023-05-20T10:28:36;99252.47;;;17.24
73685;BMP280;61985;51.070;14.064;2023-05-20T10:31:02;99259.91;;;17.05
73685;BMP280;61985;51.070;14.064;2023-05-20T10:33:28;99263.66;;;17.26
73685;BMP280;61985;51.070;14.064;2023-05-20T10:35:58;99262.63;;;17.23
73685;BMP280;61985;51.070;14.064;2023-05-20T10:38:24;99253.34;;;17.30
73685;BMP280;61985;51.070;14.064;2023-05-20T10:40:49;99252.84;;;17.50
73685;BMP280;61985;51.070;14.064;2023-05-20T10:43:24;99243.53;;;17.14
73685;BMP280;61985;51.070;14.064;2023-05-20T10:45:51;99256.75;;;17.67
73685;BMP280;61985;51.070;14.064;2023-05-20T10:50:53;99252.13;;;17.83
73685;BMP280;61985;51.070;14.064;2023-05-20T10:53:21;99260.47;;;17.70
73685;BMP280;61985;51.070;14.064;2023-05-20T10:55:48;99240.78;;;17.84
73685;BMP280;61985;51.070;14.064;2023-05-20T10:58:17;99238.44;;;18.16
73685;BMP280;61985;51.070;14.064;2023-05-20T11:00:47;99237.22;;;18.41
73685;BMP280;61985;51.070;14.064;2023-05-20T11:03:13;99224.19;;;18.75
73685;BMP280;61985;51.070;14.064;2023-05-20T11:05:39;99229.28;;;18.82
73685;BMP280;61985;51.070;14.064;2023-05-20T11:08:06;99225.44;;;18.74
73685;BMP280;61985;51.070;14.064;2023-05-20T11:10:33;99217.31;;;18.94
73685;BMP280;61985;51.070;14.064;2023-05-20T11:13:00;99210.81;;;18.92
73685;BMP280;61985;51.070;14.064;2023-05-20T11:15:26;99203.19;;;19.11
73685;BMP280;61985;51.070;14.064;2023-05-20T11:17:55;99220.03;;;19.39
73685;BMP280;61985;51.070;14.064;2023-05-20T11:20:22;99199.84;;;19.36
73685;BMP280;61985;51.070;14.064;2023-05-20T11:22:49;99203.72;;;19.44
73685;BMP280;61985;51.070;14.064;2023-05-20T11:25:16;99193.91;;;19.73
73685;BMP280;61985;51.070;14.064;2023-05-20T11:27:42;99193.22;;;19.58
73685;BMP280;61985;51.070;14.064;2023-05-20T11:30:08;99199.72;;;19.81
73685;BMP280;61985;51.070;14.064;2023-05-20T11:32:33;99197.72;;;19.61
73685;BMP280;61985;51.070;14.064;2023-05-20T11:34:59;99201.88;;;19.56
73685;BMP280;61985;51.070;14.064;2023-05-20T11:37:24;99190.91;;;19.71
73685;BMP280;61985;51.070;14.064;2023-05-20T11:40:02;99184.34;;;19.83
73685;BMP280;61985;51.070;14.064;2023-05-20T11:42:31;99187.69;;;19.93
73685;BMP280;61985;51.070;14.064;2023-05-20T11:44:59;99188.31;;;19.62
73685;BMP280;61985;51.070;14.064;2023-05-20T11:47:24;99188.06;;;19.45
73685;BMP280;61985;51.070;14.064;2023-05-20T11:49:52;99186.28;;;19.27
73685;BMP280;61985;51.070;14.064;2023-05-20T11:52:18;99187.97;;;19.39
73685;BMP280;61985;51.070;14.064;2023-05-20T11:54:43;99187.75;;;19.58
73685;BMP280;61985;51.070;14.064;2023-05-20T11:57:12;99191.72;;;19.77
73685;BMP280;61985;51.070;14.064;2023-05-20T11:59:37;99196.97;;;20.01
73685;BMP280;61985;51.070;14.064;2023-05-20T12:02:03;99195.69;;;19.97
73685;BMP280;61985;51.070;14.064;2023-05-20T12:04:28;99198.00;;;20.24
73685;BMP280;61985;51.070;14.064;2023-05-20T12:06:54;99190.97;;;19.97
73685;BMP280;61985;51.070;14.064;2023-05-20T12:09:20;99191.03;;;19.82
73685;BMP280;61985;51.070;14.064;2023-05-20T12:11:46;99192.09;;;20.32
73685;BMP280;61985;51.070;14.064;2023-05-20T12:14:11;99190.34;;;20.08
73685;BMP280;61985;51.070;14.064;2023-05-20T12:16:37;99174.81;;;20.20
73685;BMP280;61985;51.070;14.064;2023-05-20T12:19:02;99171.72;;;20.59
73685;BMP280;61985;51.070;14.064;2023-05-20T12:21:28;99161.41;;;20.48
73685;BMP280;61985;51.070;14.064;2023-05-20T12:23:54;99161.75;;;20.61
73685;BMP280;61985;51.070;14.064;2023-05-20T12:26:24;99156.69;;;20.48
73685;BMP280;61985;51.070;14.064;2023-05-20T12:28:50;99158.44;;;20.51
73685;BMP280;61985;51.070;14.064;2023-05-20T12:31:15;99159.97;;;20.84
73685;BMP280;61985;51.070;14.064;2023-05-20T12:33:40;99164.56;;;20.99
73685;BMP280;61985;51.070;14.064;2023-05-20T12:36:06;99149.41;;;20.71
73685;BMP280;61985;51.070;14.064;2023-05-20T12:38:31;99148.25;;;20.84
73685;BMP280;61985;51.070;14.064;2023-05-20T12:40:57;99163.19;;;20.83
73685;BMP280;61985;51.070;14.064;2023-05-20T12:43:23;99151.13;;;21.06
73685;BMP280;61985;51.070;14.064;2023-05-20T12:45:48;99143.31;;;20.93
73685;BMP280;61985;51.070;14.064;2023-05-20T12:48:13;99147.44;;;21.15
73685;BMP280;61985;51.070;14.064;2023-05-20T12:50:39;99139.22;;;21.15
73685;BMP280;61985;51.070;14.064;2023-05-20T12:53:04;99138.75;;;21.17
73685;BMP280;61985;51.070;14.064;2023-05-20T12:55:30;99126.84;;;21.25
73685;BMP280;61985;51.070;14.064;2023-05-20T12:57:55;99138.38;;;21.35
73685;BMP280;61985;51.070;14.064;2023-05-20T13:00:20;99136.00;;;21.17
73685;BMP280;61985;51.070;14.064;2023-05-20T13:02:46;99131.53;;;21.13
73685;BMP280;61985;51.070;14.064;2023-05-20T13:05:12;99131.34;;;21.28
73685;BMP280;61985;51.070;14.064;2023-05-20T13:07:38;99144.63;;;21.41
73685;BMP280;61985;51.070;14.064;2023-05-20T13:10:04;99125.38;;;21.30
73685;BMP280;61985;51.070;14.064;2023-05-20T13:12:29;99122.00;;;21.57
73685;BMP280;61985;51.070;14.064;2023-05-20T13:14:55;99142.47;;;21.62
73685;BMP280;61985;51.070;14.064;2023-05-20T13:17:20;99126.03;;;21.62
73685;BMP280;61985;51.070;14.064;2023-05-20T13:19:45;99127.75;;;21.11
73685;BMP280;61985;51.070;14.064;2023-05-20T13:22:11;99113.94;;;21.37
73685;BMP280;61985;51.070;14.064;2023-05-20T13:24:36;99107.78;;;21.53
73685;BMP280;61985;51.070;14.064;2023-05-20T13:27:02;99107.81;;;21.65
73685;BMP280;61985;51.070;14.064;2023-05-20T13:29:28;99107.09;;;21.81
73685;BMP280;61985;51.070;14.064;2023-05-20T13:31:54;99110.03;;;21.55
73685;BMP280;61985;51.070;14.064;2023-05-20T13:34:20;99102.75;;;21.46
73685;BMP280;61985;51.070;14.064;2023-05-20T13:36:45;99111.06;;;21.69
73685;BMP280;61985;51.070;14.064;2023-05-20T13:39:12;99107.78;;;21.53
73685;BMP280;61985;51.070;14.064;2023-05-20T13:41:37;99108.84;;;21.84
73685;BMP280;61985;51.070;14.064;2023-05-20T13:44:03;99096.53;;;21.46
73685;BMP280;61985;51.070;14.064;2023-05-20T13:46:28;99091.88;;;21.69
73685;BMP280;61985;51.070;14.064;2023-05-20T13:48:54;99095.69;;;22.05
73685;BMP280;61985;51.070;14.064;2023-05-20T13:51:19;99096.19;;;21.98
73685;BMP280;61985;51.070;14.064;2023-05-20T13:53:45;99096.44;;;22.17
73685;BMP280;61985;51.070;14.064;2023-05-20T13:56:10;99096.69;;;22.24
73685;BMP280;61985;51.070;14.064;2023-05-20T13:58:35;99082.94;;;22.64
73685;BMP280;61985;51.070;14.064;2023-05-20T14:01:01;99077.69;;;22.72
73685;BMP280;61985;51.070;14.064;2023-05-20T14:03:28;99086.47;;;22.48
73685;BMP280;61985;51.070;14.064;2023-05-20T14:05:54;99068.19;;;22.56
73685;BMP280;61985;51.070;14.064;2023-05-20T14:08:20;99072.44;;;21.78
73685;BMP280;61985;51.070;14.064;2023-05-20T14:10:45;99082.75;;;20.80
73685;BMP280;61985;51.070;14.064;2023-05-20T14:13:10;99077.53;;;21.25
73685;BMP280;61985;51.070;14.064;2023-05-20T14:15:36;99071.94;;;21.74
73685;BMP280;61985;51.070;14.064;2023-05-20T14:18:01;99077.25;;;22.11
73685;BMP280;61985;51.070;14.064;2023-05-20T14:20:26;99072.22;;;22.32
73685;BMP280;61985;51.070;14.064;2023-05-20T14:22:52;99072.00;;;22.02
73685;BMP280;61985;51.070;14.064;2023-05-20T14:25:17;99070.63;;;21.47
73685;BMP280;61985;51.070;14.064;2023-05-20T14:27:43;99060.47;;;21.81
73685;BMP280;61985;51.070;14.064;2023-05-20T14:30:09;99062.03;;;22.16
73685;BMP280;61985;51.070;14.064;2023-05-20T14:32:34;99069.66;;;21.61
73685;BMP280;61985;51.070;14.064;2023-05-20T14:35:00;99050.47;;;20.96
73685;BMP280;61985;51.070;14.064;2023-05-20T14:37:25;99053.41;;;21.46
73685;BMP280;61985;51.070;14.064;2023-05-20T14:39:52;99053.28;;;22.17
73685;BMP280;61985;51.070;14.064;2023-05-20T14:42:18;99051.53;;;22.31
73685;BMP280;61985;51.070;14.064;2023-05-20T14:44:43;99051.00;;;22.50
73685;BMP280;61985;51.070;14.064;2023-05-20T14:47:08;99043.53;;;22.33
73685;BMP280;61985;51.070;14.064;2023-05-20T14:49:34;99040.06;;;22.27
73685;BMP280;61985;51.070;14.064;2023-05-20T14:52:01;99030.56;;;22.28
73685;BMP280;61985;51.070;14.064;2023-05-20T14:54:26;99023.34;;;22.19
73685;BMP280;61985;51.070;14.064;2023-05-20T14:56:51;99028.84;;;22.02
73685;BMP280;61985;51.070;14.064;2023-05-20T14:59:17;99034.81;;;22.01
73685;BMP280;61985;51.070;14.064;2023-05-20T15:01:43;99042.06;;;22.15
73685;BMP280;61985;51.070;14.064;2023-05-20T15:04:08;99036.56;;;22.04
73685;BMP280;61985;51.070;14.064;2023-05-20T15:06:33;99046.00;;;21.64
73685;BMP280;61985;51.070;14.064;2023-05-20T15:09:01;99044.03;;;21.98
73685;BMP280;61985;51.070;14.064;2023-05-20T15:11:26;99043.78;;;22.01
73685;BMP280;61985;51.070;14.064;2023-05-20T15:13:52;99048.28;;;21.88
73685;BMP280;61985;51.070;14.064;2023-05-20T15:16:17;99040.81;;;21.88
73685;BMP280;61985;51.070;14.064;2023-05-20T15:18:44;99038.78;;;21.72
73685;BMP280;61985;51.070;14.064;2023-05-20T15:21:09;99030.78;;;21.68
73685;BMP280;61985;51.070;14.064;2023-05-20T15:23:34;99031.28;;;21.89
73685;BMP280;61985;51.070;14.064;2023-05-20T15:26:00;99032.06;;;22.01
73685;BMP280;61985;51.070;14.064;2023-05-20T15:28:25;99023.84;;;22.07
73685;BMP280;61985;51.070;14.064;2023-05-20T15:30:54;99019.59;;;21.83
73685;BMP280;61985;51.070;14.064;2023-05-20T15:33:20;99029.78;;;21.66
73685;BMP280;61985;51.070;14.064;2023-05-20T15:35:46;99018.31;;;21.67
73685;BMP280;61985;51.070;14.064;2023-05-20T15:38:12;99030.81;;;21.91
73685;BMP280;61985;51.070;14.064;2023-05-20T15:40:38;99016.56;;;21.58
73685;BMP280;61985;51.070;14.064;2023-05-20T15:43:03;99019.56;;;21.61
73685;BMP280;61985;51.070;14.064;2023-05-20T15:45:30;99015.53;;;21.50
73685;BMP280;61985;51.070;14.064;2023-05-20T15:47:55;99019.50;;;21.38
73685;BMP280;61985;51.070;14.064;2023-05-20T15:50:21;99010.97;;;21.19
73685;BMP280;61985;51.070;14.064;2023-05-20T15:52:47;99008.44;;;21.10
73685;BMP280;61985;51.070;14.064;2023-05-20T15:55:12;99012.44;;;21.14
73685;BMP280;61985;51.070;14.064;2023-05-20T15:57:38;99008.53;;;20.78
73685;BMP280;61985;51.070;14.064;2023-05-20T16:00:04;99000.78;;;20.77
73685;BMP280;61985;51.070;14.064;2023-05-20T16:02:36;99004.03;;;20.75
73685;BMP280;61985;51.070;14.064;2023-05-20T16:05:01;99010.75;;;20.37
73685;BMP280;61985;51.070;14.064;2023-05-20T16:07:27;99000.00;;;20.27
73685;BMP280;61985;51.070;14.064;2023-05-20T16:09:52;99008.13;;;20.16
73685;BMP280;61985;51.070;14.064;2023-05-20T16:12:18;98994.56;;;20.01
73685;BMP280;61985;51.070;14.064;2023-05-20T16:14:44;99003.03;;;19.77
73685;BMP280;61985;51.070;14.064;2023-05-20T16:17:09;98996.13;;;19.56
73685;BMP280;61985;51.070;14.064;2023-05-20T16:19:35;99003.38;;;19.38
73685;BMP280;61985;51.070;14.064;2023-05-20T16:22:00;98993.00;;;19.22
73685;BMP280;61985;51.070;14.064;2023-05-20T16:24:26;98994.22;;;19.00
73685;BMP280;61985;51.070;14.064;2023-05-20T16:26:52;98988.41;;;18.93
73685;BMP280;61985;51.070;14.064;2023-05-20T16:29:18;99002.22;;;18.69
73685;BMP280;61985;51.070;14.064;2023-05-20T16:31:44;98990.00;;;18.64
73685;BMP280;61985;51.070;14.064;2023-05-20T16:34:13;99000.16;;;18.64
73685;BMP280;61985;51.070;14.064;2023-05-20T16:36:39;98983.66;;;18.73
73685;BMP280;61985;51.070;14.064;2023-05-20T16:39:04;98997.28;;;18.88
73685;BMP280;61985;51.070;14.064;2023-05-20T16:41:30;98984.72;;;18.75
73685;BMP280;61985;51.070;14.064;2023-05-20T16:43:55;99000.50;;;18.86
73685;BMP280;61985;51.070;14.064;2023-05-20T16:46:21;98991.81;;;18.88
73685;BMP280;61985;51.070;14.064;2023-05-20T16:48:46;98983.28;;;18.80
73685;BMP280;61985;51.070;14.064;2023-05-20T16:51:12;98978.53;;;18.60
73685;BMP280;61985;51.070;14.064;2023-05-20T16:53:37;98975.34;;;18.62
73685;BMP280;61985;51.070;14.064;2023-05-20T16:56:04;98986.63;;;18.54
73685;BMP280;61985;51.070;14.064;2023-05-20T16:58:30;98994.56;;;18.37
73685;BMP280;61985;51.070;14.064;2023-05-20T17:00:55;98986.09;;;18.35
73685;BMP280;61985;51.070;14.064;2023-05-20T17:03:21;98989.69;;;18.27
73685;BMP280;61985;51.070;14.064;2023-05-20T17:05:46;98986.41;;;18.23
73685;BMP280;61985;51.070;14.064;2023-05-20T17:08:11;98995.13;;;18.27
73685;BMP280;61985;51.070;14.064;2023-05-20T17:10:37;98996.34;;;18.11
73685;BMP280;61985;51.070;14.064;2023-05-20T17:13:02;98991.84;;;18.08
73685;BMP280;61985;51.070;14.064;2023-05-20T17:15:28;98993.25;;;18.03
73685;BMP280;61985;51.070;14.064;2023-05-20T17:17:53;98993.25;;;17.88
73685;BMP280;61985;51.070;14.064;2023-05-20T17:20:19;98992.59;;;17.79
73685;BMP280;61985;51.070;14.064;2023-05-20T17:22:44;98997.91;;;17.73
73685;BMP280;61985;51.070;14.064;2023-05-20T17:25:09;98989.09;;;17.78
73685;BMP280;61985;51.070;14.064;2023-05-20T17:27:35;98982.34;;;17.73
73685;BMP280;61985;51.070;14.064;2023-05-20T17:30:00;98989.66;;;17.67
73685;BMP280;61985;51.070;14.064;2023-05-20T17:32:26;98988.59;;;17.65
73685;BMP280;61985;51.070;14.064;2023-05-20T17:34:51;98994.22;;;17.61
73685;BMP280;61985;51.070;14.064;2023-05-20T17:37:16;98984.28;;;17.73
73685;BMP280;61985;51.070;14.064;2023-05-20T17:39:42;98994.22;;;17.61
73685;BMP280;61985;51.070;14.064;2023-05-20T17:42:07;98998.03;;;17.54
73685;BMP280;61985;51.070;14.064;2023-05-20T17:44:33;98996.91;;;17.46
73685;BMP280;61985;51.070;14.064;2023-05-20T17:46:58;99003.81;;;17.32
73685;BMP280;61985;51.070;14.064;2023-05-20T17:49:24;98997.63;;;17.32
73685;BMP280;61985;51.070;14.064;2023-05-20T17:51:49;99002.19;;;17.26
73685;BMP280;61985;51.070;14.064;2023-05-20T17:54:14;99013.31;;;17.13
73685;BMP280;61985;51.070;14.064;2023-05-20T17:56:40;99016.66;;;17.08
73685;BMP280;61985;51.070;14.064;2023-05-20T17:59:08;99013.72;;;16.97
73685;BMP280;61985;51.070;14.064;2023-05-20T18:01:34;99017.38;;;16.84
73685;BMP280;61985;51.070;14.064;2023-05-20T18:04:01;99015.59;;;16.81
73685;BMP280;61985;51.070;14.064;2023-05-20T18:06:30;99013.50;;;16.67
73685;BMP280;61985;51.070;14.064;2023-05-20T18:08:59;99015.94;;;16.65
73685;BMP280;61985;51.070;14.064;2023-05-20T18:11:26;99018.31;;;16.72
73685;BMP280;61985;51.070;14.064;2023-05-20T18:13:51;99021.88;;;16.54
73685;BMP280;61985;51.070;14.064;2023-05-20T18:16:17;99019.19;;;16.45
73685;BMP280;61985;51.070;14.064;2023-05-20T18:18:43;99019.91;;;16.45
73685;BMP280;61985;51.070;14.064;2023-05-20T18:21:08;99009.94;;;16.51
73685;BMP280;61985;51.070;14.064;2023-05-20T18:23:34;99023.13;;;16.44
73685;BMP280;61985;51.070;14.064;2023-05-20T18:25:59;99027.81;;;16.34
73685;BMP280;61985;51.070;14.064;2023-05-20T18:28:25;99018.44;;;16.35
73685;BMP280;61985;51.070;14.064;2023-05-20T18:30:50;99021.28;;;16.41
73685;BMP280;61985;51.070;14.064;2023-05-20T18:33:15;99029.94;;;16.30
73685;BMP280;61985;51.070;14.064;2023-05-20T18:35:41;99031.75;;;16.15
73685;BMP280;61985;51.070;14.064;2023-05-20T18:38:06;99022.69;;;16.08
73685;BMP280;61985;51.070;14.064;2023-05-20T18:40:31;99037.22;;;16.05
73685;BMP280;61985;51.070;14.064;2023-05-20T18:42:56;99030.88;;;15.99
73685;BMP280;61985;51.070;14.064;2023-05-20T18:45:23;99034.31;;;15.90
73685;BMP280;61985;51.070;14.064;2023-05-20T18:47:51;99031.75;;;15.87
73685;BMP280;61985;51.070;14.064;2023-05-20T18:50:17;99035.06;;;15.82
73685;BMP280;61985;51.070;14.064;2023-05-20T18:52:42;99040.94;;;15.80
73685;BMP280;61985;51.070;14.064;2023-05-20T18:55:08;99039.19;;;15.77
73685;BMP280;61985;51.070;14.064;2023-05-20T18:57:33;99036.47;;;15.77
73685;BMP280;61985;51.070;14.064;2023-05-20T18:59:58;99045.63;;;15.70
73685;BMP280;61985;51.070;14.064;2023-05-20T19:02:24;99055.44;;;15.59
73685;BMP280;61985;51.070;14.064;2023-05-20T19:04:49;99047.44;;;15.55
73685;BMP280;61985;51.070;14.064;2023-05-20T19:07:15;99054.38;;;15.56
73685;BMP280;61985;51.070;14.064;2023-05-20T19:09:40;99051.78;;;15.43
73685;BMP280;61985;51.070;14.064;2023-05-20T19:12:06;99052.09;;;15.45
73685;BMP280;61985;51.070;14.064;2023-05-20T19:14:31;99054.16;;;15.32